Terminal Aerodrome Forecast
Issued by NWS

Home | Current Version | Previous Version | Text Only | Print | Product List | Glossary On
Versions: 1 2 3 4 5 6 7 8 9 10 11 12 13 14 15 16 17 18 19 20 21 22 23 24 25 26 27 28 29 30 31 32 33
091
FTAK31 PAFA 102338
TAFAQT
TAF
PAQT 102338Z 1100/1124 04020KT 1/2SM FZFG FEW008 BKN012 OVC015
      TEMPO 1100/1104 3/4SM -SHSN BLSN BR
     FM110400 08015KT 2SM BLSN BR OVC012
     FM111900 06013KT 2SM BR VCSH OVC015=

USA.gov is the U.S. government's official web portal to all federal, state and local government web resources and services.